sensor_id;sensor_type;location;lat;lon;timestamp;pressure;altitude;pressure_sealevel;temperature;humidity
5952;BME280;3001;42.622;23.194;2024-03-02T00:00:49;90681.25;;;18.81;50.99
5952;BME280;3001;42.622;23.194;2024-03-02T00:03:15;90672.75;;;18.58;51.66
5952;BME280;3001;42.622;23.194;2024-03-02T00:05:43;90684.91;;;18.69;51.33
5952;BME280;3001;42.622;23.194;2024-03-02T00:08:10;90685.59;;;18.63;52.19
5952;BME280;3001;42.622;23.194;2024-03-02T00:10:38;90691.16;;;18.58;52.64
5952;BME280;3001;42.622;23.194;2024-03-02T00:13:06;90691.72;;;18.77;52.12
5952;BME280;3001;42.622;23.194;2024-03-02T00:15:46;90693.19;;;18.75;51.69
5952;BME280;3001;42.622;23.194;2024-03-02T00:18:14;90688.72;;;18.75;52.21
5952;BME280;3001;42.622;23.194;2024-03-02T00:20:45;90689.63;;;18.97;51.48
5952;BME280;3001;42.622;23.194;2024-03-02T00:23:14;90673.34;;;18.81;51.51
5952;BME280;3001;42.622;23.194;2024-03-02T00:25:42;90686.25;;;18.96;50.78
5952;BME280;3001;42.622;23.194;2024-03-02T00:28:20;90680.81;;;19.22;50.60
5952;BME280;3001;42.622;23.194;2024-03-02T00:30:58;90670.25;;;19.19;50.31
5952;BME280;3001;42.622;23.194;2024-03-02T00:33:27;90674.41;;;19.23;50.12
5952;BME280;3001;42.622;23.194;2024-03-02T00:35:55;90676.31;;;19.26;50.06
5952;BME280;3001;42.622;23.194;2024-03-02T00:38:22;90667.28;;;19.24;49.97
5952;BME280;3001;42.622;23.194;2024-03-02T00:40:49;90670.38;;;19.36;49.79
5952;BME280;3001;42.622;23.194;2024-03-02T00:43:43;90679.41;;;19.38;49.57
5952;BME280;3001;42.622;23.194;2024-03-02T00:46:11;90678.13;;;19.15;50.37
5952;BME280;3001;42.622;23.194;2024-03-02T00:48:39;90681.41;;;19.05;50.13
5952;BME280;3001;42.622;23.194;2024-03-02T00:51:10;90684.19;;;19.19;49.67
5952;BME280;3001;42.622;23.194;2024-03-02T00:53:37;90671.31;;;19.11;49.86
5952;BME280;3001;42.622;23.194;2024-03-02T00:56:04;90667.63;;;19.19;49.83
5952;BME280;3001;42.622;23.194;2024-03-02T00:58:35;90673.47;;;18.98;50.66
5952;BME280;3001;42.622;23.194;2024-03-02T01:01:02;90667.41;;;18.91;51.07
5952;BME280;3001;42.622;23.194;2024-03-02T01:03:29;90664.88;;;19.05;50.55
5952;BME280;3001;42.622;23.194;2024-03-02T01:05:56;90667.34;;;18.84;51.12
5952;BME280;3001;42.622;23.194;2024-03-02T01:08:24;90667.03;;;18.92;51.23
5952;BME280;3001;42.622;23.194;2024-03-02T01:10:51;90663.59;;;18.85;52.06
5952;BME280;3001;42.622;23.194;2024-03-02T01:13:18;90668.88;;;18.85;52.11
5952;BME280;3001;42.622;23.194;2024-03-02T01:15:44;90662.94;;;18.98;51.50
5952;BME280;3001;42.622;23.194;2024-03-02T01:18:11;90658.84;;;19.04;51.39
5952;BME280;3001;42.622;23.194;2024-03-02T01:20:38;90660.78;;;19.11;51.59
5952;BME280;3001;42.622;23.194;2024-03-02T01:23:04;90660.38;;;19.09;51.77
5952;BME280;3001;42.622;23.194;2024-03-02T01:25:32;90653.56;;;19.01;51.85
5952;BME280;3001;42.622;23.194;2024-03-02T01:27:58;90646.06;;;19.06;51.91
5952;BME280;3001;42.622;23.194;2024-03-02T01:30:25;90649.41;;;18.96;51.96
5952;BME280;3001;42.622;23.194;2024-03-02T01:32:52;90641.66;;;19.17;50.54
5952;BME280;3001;42.622;23.194;2024-03-02T01:35:18;90642.53;;;19.35;49.95
5952;BME280;3001;42.622;23.194;2024-03-02T01:37:45;90636.47;;;19.27;50.41
5952;BME280;3001;42.622;23.194;2024-03-02T01:40:12;90636.41;;;19.17;50.75
5952;BME280;3001;42.622;23.194;2024-03-02T01:42:40;90643.03;;;19.01;51.52
5952;BME280;3001;42.622;23.194;2024-03-02T01:45:08;90637.19;;;19.25;51.09
5952;BME280;3001;42.622;23.194;2024-03-02T01:47:35;90636.41;;;19.17;51.57
5952;BME280;3001;42.622;23.194;2024-03-02T01:50:02;90644.31;;;19.17;51.34
5952;BME280;3001;42.622;23.194;2024-03-02T01:52:29;90634.06;;;19.09;51.60
5952;BME280;3001;42.622;23.194;2024-03-02T01:54:56;90631.97;;;19.31;50.92
5952;BME280;3001;42.622;23.194;2024-03-02T01:57:22;90632.00;;;19.38;50.78
5952;BME280;3001;42.622;23.194;2024-03-02T01:59:50;90638.88;;;19.60;50.14
5952;BME280;3001;42.622;23.194;2024-03-02T02:02:18;90635.84;;;19.51;50.32
5952;BME280;3001;42.622;23.194;2024-03-02T02:04:45;90632.13;;;19.63;50.16
5952;BME280;3001;42.622;23.194;2024-03-02T02:07:12;90635.16;;;19.68;50.11
5952;BME280;3001;42.622;23.194;2024-03-02T02:09:39;90629.13;;;19.68;50.17
5952;BME280;3001;42.622;23.194;2024-03-02T02:12:06;90639.38;;;19.83;49.96
5952;BME280;3001;42.622;23.194;2024-03-02T02:14:33;90633.28;;;19.65;50.13
5952;BME280;3001;42.622;23.194;2024-03-02T02:17:01;90635.50;;;19.60;50.29
5952;BME280;3001;42.622;23.194;2024-03-02T02:19:28;90628.34;;;19.60;50.01
5952;BME280;3001;42.622;23.194;2024-03-02T02:21:56;90630.56;;;19.51;49.45
5952;BME280;3001;42.622;23.194;2024-03-02T02:24:23;90621.88;;;19.44;49.31
5952;BME280;3001;42.622;23.194;2024-03-02T02:26:50;90630.94;;;19.53;49.42
5952;BME280;3001;42.622;23.194;2024-03-02T02:29:16;90619.63;;;19.42;50.23
5952;BME280;3001;42.622;23.194;2024-03-02T02:31:43;90627.84;;;19.37;50.31
5952;BME280;3001;42.622;23.194;2024-03-02T02:34:09;90627.50;;;19.39;50.46
5952;BME280;3001;42.622;23.194;2024-03-02T02:36:37;90626.34;;;19.36;50.53
5952;BME280;3001;42.622;23.194;2024-03-02T02:39:08;90626.44;;;19.54;50.06
5952;BME280;3001;42.622;23.194;2024-03-02T02:41:36;90629.47;;;19.59;49.92
5952;BME280;3001;42.622;23.194;2024-03-02T02:44:03;90632.44;;;19.54;50.01
5952;BME280;3001;42.622;23.194;2024-03-02T02:46:29;90633.13;;;19.37;50.59
5952;BME280;3001;42.622;23.194;2024-03-02T02:48:56;90624.00;;;19.21;51.01
5952;BME280;3001;42.622;23.194;2024-03-02T02:51:23;90636.88;;;19.36;50.81
5952;BME280;3001;42.622;23.194;2024-03-02T02:53:50;90627.50;;;19.39;50.57
5952;BME280;3001;42.622;23.194;2024-03-02T02:56:18;90632.88;;;19.67;49.98
5952;BME280;3001;42.622;23.194;2024-03-02T02:58:45;90633.63;;;19.64;49.52
5952;BME280;3001;42.622;23.194;2024-03-02T03:01:12;90640.00;;;19.56;49.39
5952;BME280;3001;42.622;23.194;2024-03-02T03:03:39;90635.13;;;19.58;49.43
5952;BME280;3001;42.622;23.194;2024-03-02T03:06:06;90632.13;;;19.63;49.76
5952;BME280;3001;42.622;23.194;2024-03-02T03:08:32;90632.44;;;19.54;49.70
5952;BME280;3001;42.622;23.194;2024-03-02T03:10:59;90640.00;;;19.56;49.80
5952;BME280;3001;42.622;23.194;2024-03-02T03:13:27;90633.97;;;19.52;49.86
5952;BME280;3001;42.622;23.194;2024-03-02T03:15:54;90636.22;;;19.53;49.83
5952;BME280;3001;42.622;23.194;2024-03-02T03:18:21;90644.53;;;19.59;50.03
5952;BME280;3001;42.622;23.194;2024-03-02T03:20:47;90635.13;;;19.58;50.05
5952;BME280;3001;42.622;23.194;2024-03-02T03:23:14;90625.69;;;19.53;50.45
5952;BME280;3001;42.622;23.194;2024-03-02T03:25:42;90631.41;;;19.69;49.99
5952;BME280;3001;42.622;23.194;2024-03-02T03:28:09;90630.28;;;19.77;49.65
5952;BME280;3001;42.622;23.194;2024-03-02T03:30:38;90619.78;;;19.81;49.65
5952;BME280;3001;42.622;23.194;2024-03-02T03:33:05;90629.53;;;19.80;49.69
5952;BME280;3001;42.622;23.194;2024-03-02T03:35:32;90632.88;;;19.67;49.76
5952;BME280;3001;42.622;23.194;2024-03-02T03:37:59;90635.22;;;19.82;49.18
5952;BME280;3001;42.622;23.194;2024-03-02T03:40:26;90637.00;;;19.61;49.48
5952;BME280;3001;42.622;23.194;2024-03-02T03:42:52;90638.19;;;19.70;49.50
5952;BME280;3001;42.622;23.194;2024-03-02T03:45:21;90628.81;;;19.83;49.47
5952;BME280;3001;42.622;23.194;2024-03-02T03:47:49;90627.66;;;19.74;49.87
5952;BME280;3001;42.622;23.194;2024-03-02T03:50:16;90623.47;;;19.66;49.91
5952;BME280;3001;42.622;23.194;2024-03-02T03:52:42;90627.59;;;19.60;49.99
5952;BME280;3001;42.622;23.194;2024-03-02T03:55:09;90624.53;;;19.47;49.95
5952;BME280;3001;42.622;23.194;2024-03-02T03:57:36;90622.63;;;19.44;49.89
5952;BME280;3001;42.622;23.194;2024-03-02T04:00:03;90627.53;;;19.49;49.79
5952;BME280;3001;42.622;23.194;2024-03-02T04:02:30;90630.22;;;19.53;50.00
5952;BME280;3001;42.622;23.194;2024-03-02T04:04:58;90630.16;;;19.42;50.37
5952;BME280;3001;42.622;23.194;2024-03-02T04:07:25;90626.00;;;19.45;50.68
5952;BME280;3001;42.622;23.194;2024-03-02T04:09:51;90626.25;;;19.19;51.30
5952;BME280;3001;42.622;23.194;2024-03-02T04:12:18;90617.63;;;19.22;51.27
5952;BME280;3001;42.622;23.194;2024-03-02T04:14:45;90622.56;;;19.30;50.98
5952;BME280;3001;42.622;23.194;2024-03-02T04:17:12;90627.84;;;19.34;50.58
5952;BME280;3001;42.622;23.194;2024-03-02T04:19:38;90619.50;;;19.22;51.03
5952;BME280;3001;42.622;23.194;2024-03-02T04:22:06;90630.56;;;19.51;50.51
5952;BME280;3001;42.622;23.194;2024-03-02T04:24:33;90628.31;;;19.53;50.31
5952;BME280;3001;42.622;23.194;2024-03-02T04:27:00;90626.38;;;19.40;50.47
5952;BME280;3001;42.622;23.194;2024-03-02T04:29:27;90628.97;;;19.36;50.49
5952;BME280;3001;42.622;23.194;2024-03-02T04:31:54;90631.22;;;19.34;50.64
5952;BME280;3001;42.622;23.194;2024-03-02T04:34:21;90634.97;;;19.30;50.63
5952;BME280;3001;42.622;23.194;2024-03-02T04:36:48;90631.53;;;19.19;50.74
5952;BME280;3001;42.622;23.194;2024-03-02T04:39:16;90634.09;;;19.16;50.74
5952;BME280;3001;42.622;23.194;2024-03-02T04:41:43;90634.94;;;19.27;50.55
5952;BME280;3001;42.622;23.194;2024-03-02T04:44:10;90641.72;;;19.27;50.71
5952;BME280;3001;42.622;23.194;2024-03-02T04:46:36;90635.84;;;19.58;49.96
5952;BME280;3001;42.622;23.194;2024-03-02T04:49:03;90639.94;;;19.49;50.19
5952;BME280;3001;42.622;23.194;2024-03-02T04:51:30;90636.91;;;19.40;50.11
5952;BME280;3001;42.622;23.194;2024-03-02T04:53:56;90645.09;;;19.25;50.67
5952;BME280;3001;42.622;23.194;2024-03-02T04:56:24;90640.56;;;19.22;50.78
5952;BME280;3001;42.622;23.194;2024-03-02T04:59:09;90645.84;;;19.25;50.66
5952;BME280;3001;42.622;23.194;2024-03-02T05:01:36;90647.56;;;19.04;51.21
5952;BME280;3001;42.622;23.194;2024-03-02T05:04:03;90645.38;;;19.13;51.02
5952;BME280;3001;42.622;23.194;2024-03-02T05:06:29;90646.63;;;19.26;50.59
5952;BME280;3001;42.622;23.194;2024-03-02T05:08:56;90637.91;;;19.18;51.02
5952;BME280;3001;42.622;23.194;2024-03-02T05:11:24;90645.88;;;19.28;50.45
5952;BME280;3001;42.622;23.194;2024-03-02T05:14:09;90648.13;;;19.27;50.81
5952;BME280;3001;42.622;23.194;2024-03-02T05:16:36;90653.09;;;19.42;50.19
5952;BME280;3001;42.622;23.194;2024-03-02T05:19:03;90657.22;;;19.36;50.44
5952;BME280;3001;42.622;23.194;2024-03-02T05:21:31;90657.97;;;19.40;50.23
5952;BME280;3001;42.622;23.194;2024-03-02T05:23:58;90659.03;;;19.28;50.55
5952;BME280;3001;42.622;23.194;2024-03-02T05:26:27;90667.28;;;19.24;50.34
5952;BME280;3001;42.622;23.194;2024-03-02T05:28:53;90660.53;;;19.26;50.07
5952;BME280;3001;42.622;23.194;2024-03-02T05:31:20;90668.44;;;19.29;50.01
5952;BME280;3001;42.622;23.194;2024-03-02T05:33:47;90666.19;;;19.31;49.96
5952;BME280;3001;42.622;23.194;2024-03-02T05:36:13;90660.59;;;19.36;49.86
5952;BME280;3001;42.622;23.194;2024-03-02T05:38:40;90666.97;;;19.32;50.03
5952;BME280;3001;42.622;23.194;2024-03-02T05:41:06;90660.38;;;19.09;50.82
5952;BME280;3001;42.622;23.194;2024-03-02T05:43:35;90670.88;;;19.05;50.97
5952;BME280;3001;42.622;23.194;2024-03-02T05:46:01;90675.91;;;19.17;50.89
5952;BME280;3001;42.622;23.194;2024-03-02T05:48:28;90671.66;;;19.09;51.15
5952;BME280;3001;42.622;23.194;2024-03-02T05:50:55;90668.38;;;19.19;51.03
5952;BME280;3001;42.622;23.194;2024-03-02T05:53:22;90673.28;;;19.24;51.19
5952;BME280;3001;42.622;23.194;2024-03-02T05:55:48;90670.78;;;19.45;50.88
5952;BME280;3001;42.622;23.194;2024-03-02T05:58:18;90676.06;;;19.41;50.72
5952;BME280;3001;42.622;23.194;2024-03-02T06:00:58;90672.63;;;19.37;51.16
5952;BME280;3001;42.622;23.194;2024-03-02T06:03:24;90665.50;;;19.38;51.00
5952;BME280;3001;42.622;23.194;2024-03-02T06:05:51;90682.78;;;19.35;51.24
5952;BME280;3001;42.622;23.194;2024-03-02T06:08:18;90680.53;;;19.37;51.31
5952;BME280;3001;42.622;23.194;2024-03-02T06:10:44;90670.38;;;19.36;51.27
5952;BME280;3001;42.622;23.194;2024-03-02T06:13:12;90673.44;;;19.41;51.47
5952;BME280;3001;42.622;23.194;2024-03-02T06:15:38;90680.91;;;19.39;51.49
5952;BME280;3001;42.622;23.194;2024-03-02T06:18:06;90679.03;;;19.36;51.51
5952;BME280;3001;42.622;23.194;2024-03-02T06:20:33;90667.03;;;19.42;51.38
5952;BME280;3001;42.622;23.194;2024-03-02T06:23:00;90686.94;;;19.40;51.59
5952;BME280;3001;42.622;23.194;2024-03-02T06:25:27;90686.19;;;19.39;51.40
5952;BME280;3001;42.622;23.194;2024-03-02T06:27:54;90680.91;;;19.39;51.26
5952;BME280;3001;42.622;23.194;2024-03-02T06:30:20;90679.03;;;19.36;51.81
5952;BME280;3001;42.622;23.194;2024-03-02T06:32:47;90680.97;;;19.50;51.13
5952;BME280;3001;42.622;23.194;2024-03-02T06:35:15;90676.84;;;19.45;51.27
5952;BME280;3001;42.622;23.194;2024-03-02T06:37:42;90680.41;;;19.17;51.99
5952;BME280;3001;42.622;23.194;2024-03-02T06:40:09;90689.09;;;19.21;52.16
5952;BME280;3001;42.622;23.194;2024-03-02T06:42:36;90681.97;;;19.28;51.98
5952;BME280;3001;42.622;23.194;2024-03-02T06:45:03;90687.28;;;19.31;52.33
5952;BME280;3001;42.622;23.194;2024-03-02T06:47:30;90686.31;;;19.57;51.64
5952;BME280;3001;42.622;23.194;2024-03-02T06:49:57;90688.41;;;19.30;52.31
5952;BME280;3001;42.622;23.194;2024-03-02T06:52:25;90690.41;;;19.54;51.88
5952;BME280;3001;42.622;23.194;2024-03-02T06:54:52;90688.13;;;19.49;51.77
5952;BME280;3001;42.622;23.194;2024-03-02T06:57:18;90695.69;;;19.51;51.82
5952;BME280;3001;42.622;23.194;2024-03-02T06:59:46;90698.00;;;19.63;51.74
5952;BME280;3001;42.622;23.194;2024-03-02T07:02:12;90699.56;;;19.71;51.42
5952;BME280;3001;42.622;23.194;2024-03-02T07:04:39;90696.09;;;19.60;51.69
5952;BME280;3001;42.622;23.194;2024-03-02T07:07:06;90696.41;;;19.48;52.05
5952;BME280;3001;42.622;23.194;2024-03-02T07:09:34;90707.72;;;19.52;51.95
5952;BME280;3001;42.622;23.194;2024-03-02T07:12:00;90703.91;;;19.42;52.01
5952;BME280;3001;42.622;23.194;2024-03-02T07:14:27;90706.91;;;19.41;52.07
5952;BME280;3001;42.622;23.194;2024-03-02T07:17:20;90714.38;;;18.89;53.71
5952;BME280;3001;42.622;23.194;2024-03-02T07:19:46;90710.44;;;19.16;53.12
5952;BME280;3001;42.622;23.194;2024-03-02T07:22:13;90709.50;;;19.37;52.78
5952;BME280;3001;42.622;23.194;2024-03-02T07:24:41;90705.03;;;19.45;52.33
5952;BME280;3001;42.622;23.194;2024-03-02T07:27:09;90712.94;;;19.41;52.86
5952;BME280;3001;42.622;23.194;2024-03-02T07:29:36;90708.81;;;19.47;52.45
5952;BME280;3001;42.622;23.194;2024-03-02T07:32:03;90713.38;;;19.54;52.83
5952;BME280;3001;42.622;23.194;2024-03-02T07:34:29;90711.91;;;19.60;52.48
5952;BME280;3001;42.622;23.194;2024-03-02T07:36:56;90716.69;;;19.40;52.75
5952;BME280;3001;42.622;23.194;2024-03-02T07:39:24;90709.50;;;19.34;53.22
5952;BME280;3001;42.622;23.194;2024-03-02T07:41:52;90702.72;;;19.33;53.08
5952;BME280;3001;42.622;23.194;2024-03-02T07:44:19;90717.78;;;19.36;53.12
5952;BME280;3001;42.622;23.194;2024-03-02T07:46:46;90723.31;;;19.21;53.89
5952;BME280;3001;42.622;23.194;2024-03-02T07:49:15;90726.03;;;19.31;53.59
5952;BME280;3001;42.622;23.194;2024-03-02T07:51:42;90702.16;;;19.14;53.63
5952;BME280;3001;42.622;23.194;2024-03-02T07:54:09;90724.50;;;19.27;53.78
5952;BME280;3001;42.622;23.194;2024-03-02T07:56:35;90724.16;;;19.31;53.64
5952;BME280;3001;42.622;23.194;2024-03-02T07:59:04;90722.25;;;19.28;53.98
5952;BME280;3001;42.622;23.194;2024-03-02T08:01:31;90722.28;;;19.35;53.96
5952;BME280;3001;42.622;23.194;2024-03-02T08:03:59;90724.97;;;19.42;54.06
5952;BME280;3001;42.622;23.194;2024-03-02T08:06:27;90723.53;;;19.52;54.07
5952;BME280;3001;42.622;23.194;2024-03-02T08:08:54;90732.16;;;19.49;54.57
5952;BME280;3001;42.622;23.194;2024-03-02T08:11:21;90730.34;;;19.60;54.16
5952;BME280;3001;42.622;23.194;2024-03-02T08:13:47;90728.94;;;19.76;53.91
5952;BME280;3001;42.622;23.194;2024-03-02T08:16:16;90734.94;;;19.73;54.07
5952;BME280;3001;42.622;23.194;2024-03-02T08:18:45;90734.88;;;19.63;54.21
5952;BME280;3001;42.622;23.194;2024-03-02T08:21:12;90733.34;;;19.58;54.17
5952;BME280;3001;42.622;23.194;2024-03-02T08:23:39;90736.41;;;19.64;54.19
5952;BME280;3001;42.622;23.194;2024-03-02T08:26:06;90728.63;;;19.88;52.87
5952;BME280;3001;42.622;23.194;2024-03-02T08:28:33;90736.16;;;19.90;53.03
5952;BME280;3001;42.622;23.194;2024-03-02T08:31:00;90734.19;;;19.76;53.91
5952;BME280;3001;42.622;23.194;2024-03-02T08:33:28;90741.84;;;19.92;53.68
5952;BME280;3001;42.622;23.194;2024-03-02T08:35:55;90738.53;;;20.09;52.80
5952;BME280;3001;42.622;23.194;2024-03-02T08:38:22;90743.41;;;20.07;52.85
5952;BME280;3001;42.622;23.194;2024-03-02T08:40:49;90746.00;;;20.00;53.04
5952;BME280;3001;42.622;23.194;2024-03-02T08:43:17;90744.09;;;19.93;53.04
5952;BME280;3001;42.622;23.194;2024-03-02T08:45:43;90743.34;;;19.96;52.72
5952;BME280;3001;42.622;23.194;2024-03-02T08:48:09;90741.19;;;20.12;52.47
5952;BME280;3001;42.622;23.194;2024-03-02T08:50:37;90747.63;;;20.18;52.18
5952;BME280;3001;42.622;23.194;2024-03-02T08:53:04;90751.09;;;20.33;51.72
5952;BME280;3001;42.622;23.194;2024-03-02T08:55:31;90744.69;;;20.37;51.91
5952;BME280;3001;42.622;23.194;2024-03-02T08:57:58;90747.34;;;20.44;51.59
5952;BME280;3001;42.622;23.194;2024-03-02T09:00:25;90744.66;;;20.30;52.11
5952;BME280;3001;42.622;23.194;2024-03-02T09:02:51;90741.25;;;20.23;52.16
5952;BME280;3001;42.622;23.194;2024-03-02T09:05:18;90742.75;;;20.24;52.64
5952;BME280;3001;42.622;23.194;2024-03-02T09:07:46;90749.19;;;20.33;51.96
5952;BME280;3001;42.622;23.194;2024-03-02T09:10:13;90746.47;;;20.12;51.03
5952;BME280;3001;42.622;23.194;2024-03-02T09:12:40;90753.50;;;19.94;51.06
5952;BME280;3001;42.622;23.194;2024-03-02T09:15:07;90763.00;;;20.02;51.07
5952;BME280;3001;42.622;23.194;2024-03-02T09:17:34;90761.88;;;20.07;51.90
5952;BME280;3001;42.622;23.194;2024-03-02T09:20:01;90767.97;;;20.21;51.37
5952;BME280;3001;42.622;23.194;2024-03-02T09:22:29;90760.06;;;20.21;50.91
5952;BME280;3001;42.622;23.194;2024-03-02T09:24:57;90767.28;;;20.31;50.08
5952;BME280;3001;42.622;23.194;2024-03-02T09:27:24;90771.81;;;20.34;49.66
5952;BME280;3001;42.622;23.194;2024-03-02T09:29:51;90772.97;;;20.37;49.85
5952;BME280;3001;42.622;23.194;2024-03-02T09:32:18;90777.91;;;20.52;49.42
5952;BME280;3001;42.622;23.194;2024-03-02T09:34:44;90777.88;;;20.45;49.81
5952;BME280;3001;42.622;23.194;2024-03-02T09:37:13;90776.34;;;20.41;50.29
5952;BME280;3001;42.622;23.194;2024-03-02T09:39:40;90787.25;;;20.32;49.40
5952;BME280;3001;42.622;23.194;2024-03-02T09:42:11;90778.19;;;20.26;50.59
5952;BME280;3001;42.622;23.194;2024-03-02T09:44:39;90779.22;;;20.08;51.57
5952;BME280;3001;42.622;23.194;2024-03-02T09:47:07;90775.53;;;20.23;51.14
5952;BME280;3001;42.622;23.194;2024-03-02T09:49:34;90779.31;;;20.25;51.11
5952;BME280;3001;42.622;23.194;2024-03-02T09:52:03;90778.97;;;20.37;50.93
5952;BME280;3001;42.622;23.194;2024-03-02T09:54:32;90781.91;;;20.15;50.34
5952;BME280;3001;42.622;23.194;2024-03-02T09:56:59;90781.50;;;20.09;50.46
5952;BME280;3001;42.622;23.194;2024-03-02T09:59:28;90783.38;;;20.05;50.56
5952;BME280;3001;42.622;23.194;2024-03-02T10:01:56;90780.72;;;20.09;50.68
5952;BME280;3001;42.622;23.194;2024-03-02T10:04:25;90778.84;;;20.09;50.98
5952;BME280;3001;42.622;23.194;2024-03-02T10:07:09;90781.66;;;19.76;50.72
5952;BME280;3001;42.622;23.194;2024-03-02T10:09:36;90780.53;;;19.77;50.94
5952;BME280;3001;42.622;23.194;2024-03-02T10:12:04;90775.66;;;19.83;51.57
5952;BME280;3001;42.622;23.194;2024-03-02T10:14:32;90779.06;;;19.83;51.63
5952;BME280;3001;42.622;23.194;2024-03-02T10:17:02;90784.38;;;19.90;51.83
5952;BME280;3001;42.622;23.194;2024-03-02T10:19:30;90768.59;;;19.94;51.36
5952;BME280;3001;42.622;23.194;2024-03-02T10:21:59;90773.09;;;19.93;50.38
5952;BME280;3001;42.622;23.194;2024-03-02T10:24:25;90775.28;;;19.81;50.57
5952;BME280;3001;42.622;23.194;2024-03-02T10:26:52;90771.47;;;19.71;51.12
5952;BME280;3001;42.622;23.194;2024-03-02T10:29:21;90773.00;;;19.76;51.13
5952;BME280;3001;42.622;23.194;2024-03-02T10:31:49;90776.81;;;19.85;51.18
5952;BME280;3001;42.622;23.194;2024-03-02T10:34:16;90774.09;;;19.71;50.52
5952;BME280;3001;42.622;23.194;2024-03-02T10:36:43;90769.66;;;19.82;50.45
5952;BME280;3001;42.622;23.194;2024-03-02T10:39:12;90772.34;;;19.96;51.45
5952;BME280;3001;42.622;23.194;2024-03-02T10:41:40;90763.03;;;20.09;51.98
5952;BME280;3001;42.622;23.194;2024-03-02T10:44:08;90766.41;;;20.10;51.79
5952;BME280;3001;42.622;23.194;2024-03-02T10:46:36;90768.31;;;20.09;52.65
5952;BME280;3001;42.622;23.194;2024-03-02T10:49:05;90761.16;;;20.06;52.59
5952;BME280;3001;42.622;23.194;2024-03-02T10:51:34;90718.06;;;19.81;51.20
5952;BME280;3001;42.622;23.194;2024-03-02T10:54:03;90763.88;;;20.31;50.01
5952;BME280;3001;42.622;23.194;2024-03-02T10:56:31;90765.38;;;20.28;49.97
5952;BME280;3001;42.622;23.194;2024-03-02T10:59:03;90761.19;;;20.20;49.71
5952;BME280;3001;42.622;23.194;2024-03-02T11:01:32;90760.88;;;20.39;48.48
5952;BME280;3001;42.622;23.194;2024-03-02T11:04:01;90760.56;;;20.44;48.42
5952;BME280;3001;42.622;23.194;2024-03-02T11:06:30;90756.00;;;20.45;48.45
5952;BME280;3001;42.622;23.194;2024-03-02T11:09:00;90755.59;;;20.32;48.67
5952;BME280;3001;42.622;23.194;2024-03-02T11:11:32;90758.59;;;20.31;49.45
5952;BME280;3001;42.622;23.194;2024-03-02T11:14:04;90743.13;;;20.19;49.82
5952;BME280;3001;42.622;23.194;2024-03-02T11:16:36;90755.50;;;20.04;50.57
5952;BME280;3001;42.622;23.194;2024-03-02T11:19:05;90752.84;;;20.08;50.50
5952;BME280;3001;42.622;23.194;2024-03-02T11:21:35;90751.38;;;20.10;50.99
5952;BME280;3001;42.622;23.194;2024-03-02T11:24:28;90746.81;;;20.04;50.71
5952;BME280;3001;42.622;23.194;2024-03-02T11:26:58;90739.22;;;19.99;49.82
5952;BME280;3001;42.622;23.194;2024-03-02T11:29:43;90747.94;;;20.03;50.44
5952;BME280;3001;42.622;23.194;2024-03-02T11:32:14;90749.44;;;20.04;50.29
5952;BME280;3001;42.622;23.194;2024-03-02T11:34:42;90744.22;;;20.21;49.81
5952;BME280;3001;42.622;23.194;2024-03-02T11:37:13;90752.19;;;20.28;49.08
5952;BME280;3001;42.622;23.194;2024-03-02T11:39:41;90751.75;;;20.19;49.69
5952;BME280;3001;42.622;23.194;2024-03-02T11:42:08;90745.78;;;20.22;49.67
5952;BME280;3001;42.622;23.194;2024-03-02T11:44:35;90752.19;;;20.28;49.40
5952;BME280;3001;42.622;23.194;2024-03-02T11:47:05;90744.56;;;20.06;49.10
5952;BME280;3001;42.622;23.194;2024-03-02T11:49:39;90750.84;;;19.91;49.62
5952;BME280;3001;42.622;23.194;2024-03-02T11:52:08;90744.72;;;19.69;49.93
5952;BME280;3001;42.622;23.194;2024-03-02T11:54:36;90749.75;;;19.95;50.45
5952;BME280;3001;42.622;23.194;2024-03-02T11:57:05;90759.47;;;19.81;48.99
5952;BME280;3001;42.622;23.194;2024-03-02T11:59:32;90743.69;;;19.88;49.37
5952;BME280;3001;42.622;23.194;2024-03-02T12:01:59;90741.53;;;20.04;49.72
5952;BME280;3001;42.622;23.194;2024-03-02T12:04:26;90742.75;;;20.31;49.42
5952;BME280;3001;42.622;23.194;2024-03-02T12:06:56;90740.91;;;20.38;49.00
5952;BME280;3001;42.622;23.194;2024-03-02T12:09:25;90743.19;;;20.40;48.92
5952;BME280;3001;42.622;23.194;2024-03-02T12:12:03;90733.38;;;20.40;48.31
5952;BME280;3001;42.622;23.194;2024-03-02T12:14:30;90737.84;;;20.26;47.16
5952;BME280;3001;42.622;23.194;2024-03-02T12:16:57;90742.03;;;20.37;47.28
5952;BME280;3001;42.622;23.194;2024-03-02T12:19:25;90743.97;;;20.51;47.50
5952;BME280;3001;42.622;23.194;2024-03-02T12:21:52;90744.72;;;20.51;48.09
5952;BME280;3001;42.622;23.194;2024-03-02T12:24:20;90739.47;;;20.58;46.95
5952;BME280;3001;42.622;23.194;2024-03-02T12:26:47;90741.72;;;20.56;47.30
5952;BME280;3001;42.622;23.194;2024-03-02T12:29:16;90742.50;;;20.57;47.43
5952;BME280;3001;42.622;23.194;2024-03-02T12:31:42;90741.31;;;20.44;48.46
5952;BME280;3001;42.622;23.194;2024-03-02T12:34:11;90734.19;;;20.58;48.04
5952;BME280;3001;42.622;23.194;2024-03-02T12:36:38;90737.19;;;20.60;48.61
5952;BME280;3001;42.622;23.194;2024-03-02T12:39:07;90739.78;;;20.39;48.58
5952;BME280;3001;42.622;23.194;2024-03-02T12:41:36;90743.94;;;20.40;49.36
5952;BME280;3001;42.622;23.194;2024-03-02T12:44:02;90739.50;;;20.65;49.26
5952;BME280;3001;42.622;23.194;2024-03-02T12:46:31;90745.53;;;20.73;48.93
5952;BME280;3001;42.622;23.194;2024-03-02T12:48:58;90738.44;;;20.87;49.11
5952;BME280;3001;42.622;23.194;2024-03-02T12:51:26;90747.88;;;20.88;49.12
5952;BME280;3001;42.622;23.194;2024-03-02T12:53:54;90750.91;;;21.04;48.73
5952;BME280;3001;42.622;23.194;2024-03-02T12:56:21;90746.72;;;21.03;49.00
5952;BME280;3001;42.622;23.194;2024-03-02T12:58:48;90741.47;;;21.17;47.29
5952;BME280;3001;42.622;23.194;2024-03-02T13:01:19;90744.47;;;20.88;47.28
5952;BME280;3001;42.622;23.194;2024-03-02T13:03:49;90744.41;;;20.77;47.73
5952;BME280;3001;42.622;23.194;2024-03-02T13:11:21;90741.84;;;20.95;48.76
5952;BME280;3001;42.622;23.194;2024-03-02T13:13:48;90746.00;;;21.03;49.13
5952;BME280;3001;42.622;23.194;2024-03-02T13:16:15;90752.41;;;21.12;49.62
5952;BME280;3001;42.622;23.194;2024-03-02T13:18:44;90747.53;;;21.17;50.02